Time;durP1;ratioP1;P1;durP2;ratioP2;P2;SDS_P1;SDS_P2;PMS_P1;PMS_P2;Temp;Humidity;BMP_temperature;BMP_pressure;BME280_temperature;BME280_humidity;BME280_pressure;Samples;Min_cycle;Max_cycle;Signal;HPM_P1;HPM_P2
2021/03/23 00:02:18;;;;;;;19.10;11.53;;;9.50;93.20;;;;;;4966389;28;20179;-83
2021/03/23 00:04:44;;;;;;;26.13;11.57;;;9.50;93.30;;;;;;4984118;28;20210;-79
2021/03/23 00:07:10;;;;;;;25.33;11.40;;;9.40;93.70;;;;;;4974198;28;20182;-83
2021/03/23 00:09:36;;;;;;;21.87;11.33;;;9.60;93.60;;;;;;4975351;28;20202;-83
2021/03/23 00:12:02;;;;;;;25.37;11.13;;;9.50;93.30;;;;;;4974205;28;20293;-84
2021/03/23 00:14:29;;;;;;;26.00;11.63;;;9.40;93.60;;;;;;4962860;28;20330;-81
2021/03/23 00:16:54;;;;;;;24.57;12.07;;;9.50;93.60;;;;;;4971993;28;20641;-83
2021/03/23 00:19:20;;;;;;;25.93;12.03;;;9.60;93.40;;;;;;4956433;28;20238;-82
2021/03/23 00:21:46;;;;;;;24.67;11.50;;;9.70;93.30;;;;;;4957232;28;20185;-81
2021/03/23 00:24:12;;;;;;;21.77;10.63;;;9.60;93.70;;;;;;4973228;28;20175;-82
2021/03/23 00:26:37;;;;;;;23.43;10.53;;;9.70;93.20;;;;;;4953968;29;20181;-86
2021/03/23 00:29:03;;;;;;;27.97;11.67;;;9.80;93.00;;;;;;4955041;29;20531;-83
2021/03/23 00:31:31;;;;;;;26.87;11.60;;;9.70;93.30;;;;;;4953229;29;20306;-88
2021/03/23 00:33:58;;;;;;;23.23;12.10;;;9.60;93.50;;;;;;4955654;28;20172;-84
2021/03/23 00:36:29;;;;;;;25.57;11.50;;;9.60;93.40;;;;;;4958855;28;20257;-88
2021/03/23 00:38:55;;;;;;;26.87;12.73;;;9.60;93.60;;;;;;4961568;28;20171;-82
2021/03/23 00:41:22;;;;;;;22.47;11.40;;;9.40;93.90;;;;;;4976268;28;20183;-82
2021/03/23 00:43:47;;;;;;;28.40;12.10;;;9.40;94.00;;;;;;4961236;28;20171;-82
2021/03/23 00:46:13;;;;;;;21.17;11.83;;;9.40;94.10;;;;;;4976346;28;20687;-81
2021/03/23 00:48:38;;;;;;;25.00;12.43;;;9.40;94.30;;;;;;4976195;28;20235;-87
2021/03/23 00:51:05;;;;;;;30.70;12.13;;;9.40;94.10;;;;;;4977638;28;20214;-88
2021/03/23 00:53:31;;;;;;;24.53;12.37;;;9.40;94.20;;;;;;4975868;28;20174;-89
2021/03/23 00:55:58;;;;;;;23.60;12.30;;;9.40;94.30;;;;;;4959681;28;20200;-87
2021/03/23 00:58:24;;;;;;;23.20;12.87;;;9.30;94.50;;;;;;4975886;28;20179;-85
2021/03/23 01:00:50;;;;;;;27.67;12.47;;;9.20;94.70;;;;;;4975458;28;20560;-82
2021/03/23 01:03:15;;;;;;;35.67;13.40;;;9.30;94.70;;;;;;4959539;28;20179;-82
2021/03/23 01:05:43;;;;;;;27.00;12.40;;;9.20;94.70;;;;;;4959075;28;20182;-82
2021/03/23 01:08:08;;;;;;;30.07;12.47;;;9.30;94.80;;;;;;4975446;28;20619;-83
2021/03/23 01:10:34;;;;;;;26.50;13.10;;;9.30;94.90;;;;;;4959507;28;20175;-82
2021/03/23 01:13:00;;;;;;;24.63;14.03;;;9.50;94.50;;;;;;4959270;28;20213;-82
2021/03/23 01:15:31;;;;;;;24.27;12.93;;;9.50;94.60;;;;;;4975397;28;20178;-81
2021/03/23 01:17:57;;;;;;;26.70;12.77;;;9.40;94.70;;;;;;4959492;28;20549;-82
2021/03/23 01:20:24;;;;;;;34.73;12.53;;;9.40;94.70;;;;;;4959587;28;20170;-82
2021/03/23 01:22:50;;;;;;;24.17;13.07;;;9.50;94.50;;;;;;4959363;28;20174;-82
2021/03/23 01:25:16;;;;;;;24.00;12.50;;;9.40;94.70;;;;;;4958845;28;20221;-84
2021/03/23 01:27:43;;;;;;;24.37;12.87;;;9.50;94.70;;;;;;4959110;28;20166;-90
2021/03/23 01:30:10;;;;;;;21.37;11.90;;;9.50;94.60;;;;;;4975093;28;20174;-90
2021/03/23 01:32:36;;;;;;;26.70;12.50;;;9.40;94.70;;;;;;4958636;28;20229;-88
2021/03/23 01:35:03;;;;;;;26.43;13.60;;;9.30;94.90;;;;;;4958845;28;20166;-88
2021/03/23 01:37:28;;;;;;;23.20;12.70;;;9.30;95.00;;;;;;4975062;28;20279;-84
2021/03/23 01:39:54;;;;;;;26.80;12.87;;;9.30;95.10;;;;;;4959330;28;20235;-82
2021/03/23 01:42:21;;;;;;;23.93;12.63;;;9.30;95.20;;;;;;4958758;28;20166;-82
2021/03/23 01:45:14;;;;;;;26.83;13.20;;;9.30;95.30;;;;;;4958503;28;20223;-81
2021/03/23 01:47:40;;;;;;;26.93;14.07;;;9.30;95.30;;;;;;4974851;28;20175;-81
2021/03/23 01:50:06;;;;;;;28.07;13.53;;;9.30;95.30;;;;;;4958552;28;20173;-81
2021/03/23 01:52:32;;;;;;;29.63;14.13;;;9.40;95.20;;;;;;4958669;28;20314;-82
2021/03/23 01:55:01;;;;;;;31.63;14.93;;;9.40;95.10;;;;;;4975522;28;21016;-83
2021/03/23 01:57:29;;;;;;;29.07;14.10;;;9.50;95.00;;;;;;4958409;28;20706;-83
2021/03/23 01:59:57;;;;;;;29.87;13.67;;;9.40;95.30;;;;;;4958620;28;20181;-83
2021/03/23 02:02:26;;;;;;;27.13;13.13;;;9.40;95.20;;;;;;4958721;28;20218;-82
2021/03/23 02:04:51;;;;;;;30.00;14.83;;;9.40;95.20;;;;;;4975217;28;20584;-82
2021/03/23 02:07:17;;;;;;;29.70;13.43;;;9.40;95.10;;;;;;4975761;28;20163;-81
2021/03/23 02:09:44;;;;;;;25.67;13.83;;;9.50;94.90;;;;;;4974637;28;20171;-82
2021/03/23 02:12:14;;;;;;;29.23;13.77;;;9.40;95.20;;;;;;4974379;28;20222;-82
2021/03/23 02:14:43;;;;;;;33.63;13.90;;;9.40;95.20;;;;;;4974433;28;20185;-82
2021/03/23 02:17:32;;;;;;;26.53;13.43;;;9.40;95.50;;;;;;4957978;28;20710;-82
2021/03/23 02:20:17;;;;;;;26.07;13.47;;;9.40;95.50;;;;;;4974224;28;20213;-82
2021/03/23 02:22:50;;;;;;;30.83;14.33;;;9.30;95.40;;;;;;4975386;28;20178;-82
2021/03/23 02:25:17;;;;;;;28.47;13.43;;;9.20;95.90;;;;;;4973965;28;20175;-83
2021/03/23 02:27:43;;;;;;;25.57;13.93;;;9.20;95.90;;;;;;4961967;28;20219;-82
2021/03/23 02:30:16;;;;;;;29.10;14.53;;;9.10;96.10;;;;;;4975133;28;20175;-88
2021/03/23 02:32:42;;;;;;;30.37;14.97;;;9.30;95.70;;;;;;4973909;28;20222;-89
2021/03/23 02:35:08;;;;;;;29.33;14.17;;;9.30;95.70;;;;;;4973522;28;20167;-89
2021/03/23 02:37:34;;;;;;;31.33;14.10;;;9.10;96.20;;;;;;4958151;28;20181;-82
2021/03/23 02:40:00;;;;;;;26.30;15.20;;;9.20;96.00;;;;;;4974010;28;20196;-82
2021/03/23 02:42:26;;;;;;;28.23;14.20;;;9.30;96.00;;;;;;4957701;28;20166;-82
2021/03/23 02:44:51;;;;;;;29.40;14.20;;;9.10;96.30;;;;;;4974971;28;20238;-82
2021/03/23 02:47:18;;;;;;;30.70;14.53;;;9.10;96.40;;;;;;4957823;28;20254;-82
2021/03/23 02:49:45;;;;;;;26.77;14.30;;;9.30;96.30;;;;;;4957959;28;20201;-81
2021/03/23 02:52:12;;;;;;;27.90;14.80;;;9.20;96.30;;;;;;4974376;28;20206;-84
2021/03/23 02:54:38;;;;;;;31.13;15.67;;;9.20;96.40;;;;;;4957951;28;20178;-84
2021/03/23 02:57:05;;;;;;;27.87;14.83;;;9.10;96.80;;;;;;4973071;28;20185;-85
2021/03/23 02:59:31;;;;;;;32.83;15.33;;;9.00;97.10;;;;;;4974017;28;20174;-82
2021/03/23 03:01:56;;;;;;;31.37;15.23;;;9.00;97.00;;;;;;4975766;28;20202;-82
2021/03/23 03:04:22;;;;;;;31.50;15.40;;;9.20;96.80;;;;;;4973584;28;20172;-83
2021/03/23 03:06:47;;;;;;;30.37;16.70;;;9.30;96.60;;;;;;4975024;28;20573;-82
2021/03/23 03:09:13;;;;;;;35.07;17.00;;;9.20;96.60;;;;;;4957280;28;20178;-83
2021/03/23 03:11:39;;;;;;;31.37;16.23;;;9.10;97.00;;;;;;4974442;28;20203;-83
2021/03/23 03:14:04;;;;;;;32.00;16.10;;;9.00;97.40;;;;;;4975943;28;20615;-82
2021/03/23 03:16:30;;;;;;;31.63;16.17;;;9.10;97.20;;;;;;4990608;28;20538;-82
2021/03/23 03:18:56;;;;;;;32.53;17.00;;;9.20;97.40;;;;;;4994023;28;20177;-82
2021/03/23 03:21:22;;;;;;;35.83;16.63;;;9.20;97.10;;;;;;4976603;28;20177;-82
2021/03/23 03:23:48;;;;;;;33.67;16.43;;;9.30;97.00;;;;;;4976645;28;20189;-83
2021/03/23 03:26:13;;;;;;;29.33;15.97;;;9.30;97.10;;;;;;4985238;28;20206;-83
2021/03/23 03:28:39;;;;;;;33.10;16.60;;;9.20;97.30;;;;;;4957173;28;20257;-86
2021/03/23 03:31:05;;;;;;;32.27;16.80;;;9.20;97.20;;;;;;4957149;28;20749;-90
2021/03/23 03:33:32;;;;;;;32.90;16.40;;;9.20;97.40;;;;;;4973205;28;20194;-82
2021/03/23 03:35:58;;;;;;;33.10;17.13;;;9.30;97.30;;;;;;4956812;28;20222;-83
2021/03/23 03:38:25;;;;;;;38.97;18.13;;;9.20;97.40;;;;;;4974191;28;20532;-80
2021/03/23 03:40:58;;;;;;;29.43;17.50;;;9.40;97.30;;;;;;4973617;28;20174;-81
2021/03/23 03:43:28;;;;;;;33.17;16.60;;;9.20;97.60;;;;;;4957489;28;20170;-80
2021/03/23 03:45:54;;;;;;;33.87;16.87;;;9.30;97.70;;;;;;4974120;28;20666;-81
2021/03/23 03:48:20;;;;;;;33.73;18.33;;;9.20;97.80;;;;;;4957390;28;20171;-80
2021/03/23 03:50:46;;;;;;;34.73;18.27;;;9.10;98.00;;;;;;4957111;28;20252;-82
2021/03/23 03:53:13;;;;;;;33.70;18.00;;;9.10;98.10;;;;;;4973077;28;20171;-81
2021/03/23 03:55:41;;;;;;;34.63;17.77;;;9.10;98.30;;;;;;4956856;28;20174;-82
2021/03/23 03:58:07;;;;;;;35.90;18.40;;;9.10;98.40;;;;;;4957409;28;20261;-82
2021/03/23 04:00:34;;;;;;;36.53;18.67;;;9.00;98.60;;;;;;4956887;28;20281;-83
2021/03/23 04:03:02;;;;;;;35.57;18.80;;;9.00;98.60;;;;;;4956761;28;20178;-83
2021/03/23 04:05:36;;;;;;;39.43;18.90;;;9.00;98.90;;;;;;4973688;28;20240;-83
2021/03/23 04:08:04;;;;;;;31.73;18.03;;;9.00;99.00;;;;;;4956564;28;20230;-83
2021/03/23 04:10:29;;;;;;;43.77;19.43;;;9.00;99.00;;;;;;4976167;28;20166;-82
2021/03/23 04:12:55;;;;;;;35.27;19.10;;;9.10;99.00;;;;;;4976409;28;20206;-83
2021/03/23 04:15:33;;;;;;;33.90;17.90;;;9.00;98.90;;;;;;4960298;28;20167;-81
2021/03/23 04:17:59;;;;;;;32.90;17.30;;;9.10;99.10;;;;;;4977190;28;20578;-83
2021/03/23 04:20:26;;;;;;;35.07;18.57;;;9.10;99.10;;;;;;4976568;28;20186;-82
2021/03/23 04:22:52;;;;;;;30.33;17.47;;;9.10;99.00;;;;;;4976037;28;20265;-83
2021/03/23 04:25:22;;;;;;;41.60;18.67;;;9.10;99.10;;;;;;4976072;28;20170;-82
2021/03/23 04:27:49;;;;;;;35.40;18.63;;;9.00;99.40;;;;;;4976342;28;20170;-81
2021/03/23 04:30:16;;;;;;;28.33;17.20;;;9.00;99.40;;;;;;4960192;28;20189;-81
2021/03/23 04:32:42;;;;;;;35.00;16.73;;;9.10;99.30;;;;;;4977043;28;20210;-82
2021/03/23 04:35:17;;;;;;;35.90;17.50;;;9.00;99.50;;;;;;4959659;28;20230;-82
2021/03/23 04:37:42;;;;;;;34.80;17.43;;;9.00;99.70;;;;;;4975547;28;20540;-82
2021/03/23 04:40:09;;;;;;;36.13;17.97;;;8.90;99.90;;;;;;4976457;28;20171;-89
2021/03/23 04:42:35;;;;;;;34.03;16.80;;;8.90;99.90;;;;;;4977316;28;20616;-88
2021/03/23 04:45:00;;;;;;;36.60;17.80;;;9.00;99.80;;;;;;4975974;28;20237;-89
2021/03/23 04:47:26;;;;;;;34.07;16.40;;;9.00;99.90;;;;;;4977253;28;20628;-89
2021/03/23 04:49:51;;;;;;;37.03;16.97;;;9.10;99.90;;;;;;4960330;28;20202;-86
2021/03/23 04:52:17;;;;;;;36.33;17.80;;;9.10;99.80;;;;;;4977335;28;20202;-88
2021/03/23 04:54:42;;;;;;;34.57;17.30;;;9.00;99.90;;;;;;4959753;28;20173;-90
2021/03/23 04:57:08;;;;;;;29.50;16.10;;;9.10;99.90;;;;;;4960358;28;20191;-81
2021/03/23 04:59:34;;;;;;;32.77;16.57;;;9.10;99.90;;;;;;4976440;28;20267;-81
2021/03/23 05:01:59;;;;;;;33.17;16.67;;;9.00;99.90;;;;;;4959793;28;20202;-80
2021/03/23 05:04:25;;;;;;;32.30;16.20;;;9.10;99.90;;;;;;4976152;28;20214;-77
2021/03/23 05:06:50;;;;;;;29.37;16.33;;;9.10;99.90;;;;;;4976529;28;20167;-90
2021/03/23 05:09:16;;;;;;;33.43;16.97;;;9.10;99.90;;;;;;4976827;28;20169;-90
2021/03/23 05:11:42;;;;;;;26.37;14.97;;;9.10;99.90;;;;;;4959892;28;20671;-89
2021/03/23 05:14:09;;;;;;;28.20;15.17;;;9.10;99.90;;;;;;4977515;28;20213;-88
2021/03/23 05:16:35;;;;;;;28.10;15.80;;;9.00;99.90;;;;;;4960552;28;20167;-88
2021/03/23 05:19:01;;;;;;;26.37;15.70;;;9.00;99.90;;;;;;4976365;28;20171;-88
2021/03/23 05:21:27;;;;;;;32.47;16.43;;;9.00;99.90;;;;;;4975371;28;20547;-90
2021/03/23 05:24:00;;;;;;;31.73;16.80;;;9.00;99.90;;;;;;4977877;28;20182;-86
2021/03/23 05:26:25;;;;;;;30.97;17.27;;;8.90;99.90;;;;;;4978091;28;20171;-90
2021/03/23 05:28:52;;;;;;;38.03;18.47;;;8.70;99.90;;;;;;4961293;28;20479;-82
2021/03/23 05:31:18;;;;;;;35.27;18.13;;;8.60;99.90;;;;;;4959423;28;20683;-82
2021/03/23 05:33:44;;;;;;;42.70;18.50;;;8.40;99.90;;;;;;4975921;28;20194;-87
2021/03/23 05:36:10;;;;;;;36.40;18.63;;;8.30;99.90;;;;;;4975243;28;20539;-88
2021/03/23 05:38:36;;;;;;;36.33;18.23;;;8.30;99.90;;;;;;4975782;28;20198;-87
2021/03/23 05:41:22;;;;;;;38.03;18.93;;;8.20;99.90;;;;;;4975594;28;20635;-87
2021/03/23 05:44:10;;;;;;;34.60;18.97;;;8.20;99.90;;;;;;4959429;28;20171;-90
2021/03/23 05:46:39;;;;;;;40.60;19.03;;;8.20;99.90;;;;;;4955246;28;20178;-90
2021/03/23 05:49:10;;;;;;;41.70;18.30;;;8.20;99.90;;;;;;4974330;28;20211;-82
2021/03/23 05:51:58;;;;;;;41.47;20.10;;;8.10;99.90;;;;;;4958741;28;20688;-83
2021/03/23 05:54:33;;;;;;;47.57;20.10;;;8.10;99.90;;;;;;4958615;28;20252;-82
2021/03/23 05:57:03;;;;;;;36.60;20.17;;;8.00;99.90;;;;;;4958541;28;20190;-81
2021/03/23 05:59:54;;;;;;;38.53;19.30;;;8.10;99.90;;;;;;4975872;28;20257;-80
2021/03/23 06:02:32;;;;;;;36.93;20.03;;;8.00;99.90;;;;;;4972511;28;20183;-83
2021/03/23 06:05:23;;;;;;;33.10;19.40;;;8.00;99.90;;;;;;4954984;28;20198;-81
2021/03/23 06:07:50;;;;;;;40.43;19.30;;;8.10;99.90;;;;;;4955510;29;20175;-85
2021/03/23 06:10:21;;;;;;;43.33;20.40;;;8.20;99.90;;;;;;4955390;29;20265;-80
2021/03/23 06:13:20;;;;;;;37.20;19.83;;;8.30;99.90;;;;;;4959976;28;20273;-81
2021/03/23 06:16:05;;;;;;;38.37;20.03;;;8.20;99.90;;;;;;4963565;28;20166;-88
2021/03/23 06:18:38;;;;;;;38.87;19.73;;;8.00;99.90;;;;;;4964293;28;20166;-85
2021/03/23 06:21:16;;;;;;;37.20;19.80;;;8.00;99.90;;;;;;4947101;28;20639;-86
2021/03/23 06:24:07;;;;;;;37.47;20.10;;;8.10;99.90;;;;;;4949570;28;20195;-82
2021/03/23 06:26:54;;;;;;;42.57;21.40;;;8.20;99.90;;;;;;4965785;28;20179;-87
2021/03/23 06:29:56;;;;;;;37.87;20.10;;;8.20;99.90;;;;;;4964506;28;20170;-90
2021/03/23 06:32:42;;;;;;;44.23;20.67;;;8.20;99.90;;;;;;4949436;28;20220;-81
2021/03/23 06:35:14;;;;;;;46.83;21.40;;;8.20;99.90;;;;;;4948209;28;20171;-81
2021/03/23 06:37:41;;;;;;;46.57;21.97;;;8.30;99.90;;;;;;4951255;28;20250;-81
2021/03/23 06:40:15;;;;;;;46.40;21.73;;;8.30;99.90;;;;;;4963097;28;20175;-83
2021/03/23 06:42:45;;;;;;;45.47;20.37;;;8.30;99.90;;;;;;4964024;28;20206;-89
2021/03/23 06:45:37;;;;;;;45.03;21.57;;;8.40;99.90;;;;;;4963692;28;20616;-88
2021/03/23 06:48:21;;;;;;;48.27;22.07;;;8.50;99.90;;;;;;4961116;28;20166;-89
2021/03/23 06:50:49;;;;;;;47.27;20.80;;;8.50;99.90;;;;;;4947260;28;20223;-81
2021/03/23 06:53:21;;;;;;;41.33;20.33;;;8.60;99.90;;;;;;4973584;28;20543;-83
2021/03/23 06:55:49;;;;;;;43.67;22.13;;;8.50;99.90;;;;;;4957803;28;20517;-86
2021/03/23 06:58:32;;;;;;;45.37;21.77;;;8.40;99.90;;;;;;4975165;28;20584;-89
2021/03/23 07:01:09;;;;;;;50.57;22.33;;;8.40;99.90;;;;;;4974786;28;20667;-81
2021/03/23 07:03:35;;;;;;;36.83;20.97;;;8.40;99.90;;;;;;4972993;28;20187;-81
2021/03/23 07:06:01;;;;;;;42.47;21.83;;;8.40;99.90;;;;;;4973564;28;20162;-82
2021/03/23 07:08:29;;;;;;;38.10;22.47;;;8.40;99.90;;;;;;4957727;28;20170;-81
2021/03/23 07:10:55;;;;;;;39.47;22.13;;;8.40;99.90;;;;;;4957450;28;20620;-84
2021/03/23 07:13:30;;;;;;;45.10;21.63;;;8.50;99.90;;;;;;4957245;28;20635;-81
2021/03/23 07:16:12;;;;;;;41.80;22.17;;;8.60;99.90;;;;;;4957361;28;20375;-81
2021/03/23 07:18:44;;;;;;;37.63;21.17;;;8.70;99.90;;;;;;4973978;28;20330;-90
2021/03/23 07:21:25;;;;;;;46.67;22.40;;;8.60;99.90;;;;;;4957774;28;20163;-86
2021/03/23 07:24:20;;;;;;;47.63;21.43;;;8.70;99.90;;;;;;4974411;28;20174;-89
2021/03/23 07:27:01;;;;;;;45.73;22.37;;;8.70;99.90;;;;;;4974253;28;20178;-81
2021/03/23 07:29:30;;;;;;;40.77;21.03;;;8.70;99.90;;;;;;4983813;28;20162;-84
2021/03/23 07:32:14;;;;;;;42.23;20.33;;;8.60;99.90;;;;;;4965312;28;20217;-86
2021/03/23 07:35:03;;;;;;;43.77;22.10;;;8.60;99.90;;;;;;4968823;28;20177;-82
2021/03/23 07:37:48;;;;;;;40.43;21.10;;;8.70;99.90;;;;;;4975321;28;20269;-85
2021/03/23 07:40:38;;;;;;;41.30;21.10;;;8.70;99.90;;;;;;4975480;28;20620;-89
2021/03/23 07:43:16;;;;;;;38.70;20.33;;;8.80;99.90;;;;;;4960402;28;20174;-83
2021/03/23 07:45:58;;;;;;;37.67;20.93;;;9.00;99.90;;;;;;4963496;28;20178;-82
2021/03/23 07:48:39;;;;;;;42.67;20.23;;;9.00;99.90;;;;;;4980732;28;20167;-84
2021/03/23 07:51:30;;;;;;;40.73;20.70;;;9.10;99.90;;;;;;4963244;28;20567;-83
2021/03/23 07:54:30;;;;;;;42.17;19.93;;;9.20;99.90;;;;;;4963780;28;20171;-82
2021/03/23 07:57:30;;;;;;;38.67;20.07;;;9.30;99.90;;;;;;4978972;28;20201;-82
2021/03/23 07:59:59;;;;;;;42.47;21.20;;;9.30;99.90;;;;;;4978714;28;20233;-81
2021/03/23 08:02:49;;;;;;;36.23;20.33;;;9.30;99.90;;;;;;4961565;28;20197;-81
2021/03/23 08:05:15;;;;;;;38.97;19.53;;;9.30;99.90;;;;;;4961385;28;20543;-80
2021/03/23 08:08:03;;;;;;;43.50;20.37;;;9.40;99.90;;;;;;4961004;28;20584;-81
2021/03/23 08:10:56;;;;;;;37.27;18.77;;;9.30;99.90;;;;;;4961264;28;20545;-81
2021/03/23 08:14:01;;;;;;;34.67;18.33;;;9.40;99.90;;;;;;4961308;28;20716;-81
2021/03/23 08:17:08;;;;;;;38.50;19.70;;;9.40;99.90;;;;;;4903675;29;20689;-88
2021/03/23 08:20:24;;;;;;;37.10;19.50;;;9.50;99.90;;;;;;4908419;29;20180;-80
2021/03/23 08:23:07;;;;;;;35.07;20.33;;;9.60;99.90;;;;;;4962945;28;20166;-79
2021/03/23 08:25:49;;;;;;;38.17;18.60;;;9.60;99.90;;;;;;4988067;28;20207;-82
2021/03/23 08:29:07;;;;;;;40.43;20.53;;;9.70;99.90;;;;;;4943164;28;20211;-82
2021/03/23 08:31:40;;;;;;;42.87;21.77;;;9.60;99.90;;;;;;4932550;28;20233;-82
2021/03/23 08:34:30;;;;;;;42.77;20.27;;;9.60;99.90;;;;;;4957972;29;20191;-82
2021/03/23 08:37:25;;;;;;;35.97;19.00;;;9.70;99.90;;;;;;4966420;28;20254;-82
2021/03/23 08:39:57;;;;;;;39.17;21.37;;;9.70;99.90;;;;;;4961137;28;20167;-83
2021/03/23 08:42:27;;;;;;;41.93;21.57;;;9.70;99.90;;;;;;4962211;28;20198;-87
2021/03/23 08:45:06;;;;;;;39.53;20.33;;;9.80;99.90;;;;;;4978936;28;20250;-87
2021/03/23 08:47:38;;;;;;;34.47;20.67;;;9.90;99.90;;;;;;4961995;28;20166;-81
2021/03/23 08:50:31;;;;;;;39.90;20.27;;;10.10;99.90;;;;;;4966552;28;20167;-83
2021/03/23 08:53:42;;;;;;;35.60;19.27;;;10.20;99.90;;;;;;4965044;28;20218;-92
2021/03/23 09:00:04;;;;;;;37.63;19.63;;;10.20;99.70;;;;;;4968650;28;20250;-92
2021/03/23 09:32:46;;;;;;;;;;;;;;;;;;;;;
2021/03/23 10:12:28;;;;;;;24.60;12.57;;;11.40;95.00;;;;;;4979942;28;20237;-83
2021/03/23 10:14:56;;;;;;;25.53;12.90;;;11.40;95.40;;;;;;4984492;28;20168;-83
2021/03/23 10:17:25;;;;;;;22.60;12.93;;;11.30;95.10;;;;;;4965768;28;20176;-84
2021/03/23 10:20:00;;;;;;;23.97;12.70;;;11.30;95.10;;;;;;4966089;28;20179;-84
2021/03/23 10:22:31;;;;;;;24.23;13.40;;;11.30;95.30;;;;;;4973952;28;20199;-87
2021/03/23 10:24:59;;;;;;;24.03;13.07;;;11.40;95.50;;;;;;4981059;28;20384;-83
2021/03/23 10:27:37;;;;;;;22.87;12.90;;;11.50;95.20;;;;;;4964652;28;20621;-84
2021/03/23 10:30:15;;;;;;;26.87;13.17;;;11.60;94.30;;;;;;4964859;28;20262;-83
2021/03/23 10:32:50;;;;;;;26.93;13.00;;;11.60;94.80;;;;;;4978620;28;20208;-83
2021/03/23 10:35:46;;;;;;;25.23;14.03;;;11.60;95.00;;;;;;4977388;28;20164;-84
2021/03/23 10:38:39;;;;;;;25.73;13.60;;;11.90;94.60;;;;;;4974839;28;20269;-84
2021/03/23 10:41:18;;;;;;;29.87;16.80;;;12.00;94.20;;;;;;4966519;28;20209;-85
2021/03/23 10:43:47;;;;;;;30.93;14.10;;;12.10;94.00;;;;;;4975513;28;20185;-84
2021/03/23 10:46:37;;;;;;;21.93;13.13;;;12.10;94.00;;;;;;4976137;28;20669;-85
2021/03/23 10:49:11;;;;;;;26.13;13.30;;;12.10;93.90;;;;;;4958891;28;20164;-85
2021/03/23 10:51:50;;;;;;;23.30;13.93;;;12.30;93.90;;;;;;4980365;28;20194;-85
2021/03/23 10:54:23;;;;;;;28.80;14.73;;;12.30;93.70;;;;;;4978403;28;20217;-85
2021/03/23 10:56:59;;;;;;;25.13;14.47;;;12.40;93.70;;;;;;4975457;28;20186;-85
2021/03/23 10:59:30;;;;;;;26.03;13.87;;;12.80;93.20;;;;;;4973990;28;20201;-86
2021/03/23 11:02:20;;;;;;;34.10;14.03;;;13.10;92.60;;;;;;4974815;28;20182;-84
2021/03/23 11:05:04;;;;;;;24.40;13.13;;;13.60;91.60;;;;;;4969510;28;20243;-85
2021/03/23 11:07:34;;;;;;;26.23;12.73;;;14.30;90.50;;;;;;4977647;28;20175;-85
2021/03/23 11:10:01;;;;;;;24.37;12.40;;;15.20;89.50;;;;;;4970820;28;20294;-85
2021/03/23 11:12:30;;;;;;;24.20;12.20;;;16.20;84.70;;;;;;4977330;28;20669;-86
2021/03/23 11:14:59;;;;;;;21.37;12.53;;;16.80;81.60;;;;;;4982074;28;20188;-86
2021/03/23 11:17:27;;;;;;;22.23;12.77;;;17.30;78.40;;;;;;4980304;28;20209;-83
2021/03/23 11:20:00;;;;;;;23.07;13.33;;;17.70;76.60;;;;;;4978026;28;20184;-85
2021/03/23 11:22:33;;;;;;;24.63;13.30;;;18.20;74.70;;;;;;4974211;28;20171;-86
2021/03/23 11:25:02;;;;;;;19.37;13.33;;;18.60;72.10;;;;;;4976965;28;20169;-86
2021/03/23 11:27:30;;;;;;;24.27;14.30;;;19.10;70.30;;;;;;4975754;28;20181;-85
2021/03/23 11:30:09;;;;;;;22.50;13.10;;;19.80;68.00;;;;;;4977601;28;20173;-86
2021/03/23 11:32:35;;;;;;;24.37;13.93;;;20.50;65.10;;;;;;4990150;28;20214;-84
2021/03/23 11:35:01;;;;;;;22.53;14.97;;;19.70;65.20;;;;;;4959993;28;20182;-87
2021/03/23 11:37:29;;;;;;;22.20;13.73;;;18.70;67.00;;;;;;4977978;28;20182;-85
2021/03/23 11:39:55;;;;;;;21.03;13.63;;;18.20;67.20;;;;;;4973203;28;20189;-86
2021/03/23 11:42:35;;;;;;;24.63;15.90;;;17.50;68.80;;;;;;4966710;28;20667;-90
2021/03/23 11:45:18;;;;;;;25.97;14.80;;;17.10;70.00;;;;;;4958740;28;20178;-86
2021/03/23 11:47:54;;;;;;;24.87;15.33;;;16.90;71.00;;;;;;4974418;28;20245;-86
2021/03/23 11:50:25;;;;;;;23.67;15.17;;;17.70;69.80;;;;;;4939512;29;20657;-86
2021/03/23 11:52:54;;;;;;;25.10;14.90;;;18.30;68.40;;;;;;4970904;28;20217;-86
2021/03/23 11:55:31;;;;;;;27.53;14.47;;;19.00;66.30;;;;;;4969654;28;20262;-90
2021/03/23 11:57:57;;;;;;;27.70;14.23;;;19.60;64.80;;;;;;4955653;29;20176;-86
2021/03/23 12:00:28;;;;;;;23.47;14.33;;;19.50;64.60;;;;;;4970560;28;20209;-87
2021/03/23 12:02:54;;;;;;;23.03;13.73;;;20.10;63.20;;;;;;4978105;28;20242;-86
2021/03/23 12:05:22;;;;;;;22.50;15.10;;;20.70;61.10;;;;;;4982903;28;20175;-86
2021/03/23 12:08:22;;;;;;;23.70;15.43;;;21.00;59.70;;;;;;4978591;28;20204;-87
2021/03/23 12:11:03;;;;;;;21.13;14.60;;;21.30;59.20;;;;;;4970728;28;20190;-89
2021/03/23 12:13:47;;;;;;;22.70;15.20;;;21.80;57.80;;;;;;4973748;28;20803;-91
2021/03/23 12:16:51;;;;;;;24.67;15.00;;;22.00;57.20;;;;;;4952622;28;20175;-92
2021/03/23 12:19:19;;;;;;;21.17;14.13;;;22.60;56.00;;;;;;4956306;28;20182;-88
2021/03/23 12:21:45;;;;;;;22.57;15.37;;;22.10;55.40;;;;;;4951697;28;20579;-87
2021/03/23 12:24:12;;;;;;;23.73;15.63;;;21.50;56.20;;;;;;4963710;28;20259;-86
2021/03/23 12:26:39;;;;;;;23.67;15.50;;;21.40;56.10;;;;;;4944938;28;20566;-86
2021/03/23 12:29:05;;;;;;;23.73;13.23;;;21.70;56.00;;;;;;4962101;28;20171;-87
2021/03/23 12:31:31;;;;;;;21.80;15.00;;;22.20;55.20;;;;;;4958210;28;20202;-86
2021/03/23 12:33:57;;;;;;;22.07;14.67;;;21.70;55.10;;;;;;4968504;28;20176;-86
2021/03/23 12:36:23;;;;;;;21.73;15.00;;;21.60;55.30;;;;;;4976788;28;20261;-85
2021/03/23 12:38:51;;;;;;;25.97;14.63;;;21.80;55.00;;;;;;4971100;28;20183;-86
2021/03/23 12:41:30;;;;;;;19.83;14.10;;;21.80;54.40;;;;;;4972196;28;20694;-86
2021/03/23 12:43:55;;;;;;;21.47;14.27;;;22.60;53.90;;;;;;4949975;29;20174;-86
2021/03/23 12:46:22;;;;;;;20.70;14.50;;;23.30;52.30;;;;;;4965819;28;20182;-86
2021/03/23 12:48:48;;;;;;;21.77;14.73;;;23.60;51.80;;;;;;4962691;28;20182;-87
2021/03/23 12:51:24;;;;;;;25.77;15.10;;;23.50;51.30;;;;;;4960988;28;20203;-88
2021/03/23 12:53:51;;;;;;;23.73;14.77;;;23.90;50.40;;;;;;4979423;28;20595;-86
2021/03/23 12:56:20;;;;;;;25.10;15.73;;;24.10;50.30;;;;;;4975583;28;20261;-87
2021/03/23 12:58:46;;;;;;;22.07;14.43;;;24.10;49.50;;;;;;4968046;28;20234;-87
2021/03/23 13:01:12;;;;;;;21.50;14.60;;;23.80;50.00;;;;;;4977088;28;20171;-86
2021/03/23 13:03:38;;;;;;;21.33;15.27;;;22.90;50.70;;;;;;4979787;28;20539;-85
2021/03/23 13:06:06;;;;;;;26.57;16.10;;;22.50;51.50;;;;;;4965520;28;20263;-86
2021/03/23 13:08:34;;;;;;;24.30;16.57;;;21.70;52.50;;;;;;4993785;28;20154;-85
2021/03/23 13:11:06;;;;;;;22.43;16.20;;;21.40;52.60;;;;;;4971396;29;20199;-85
2021/03/23 13:13:36;;;;;;;24.77;15.50;;;21.70;53.20;;;;;;4979431;28;20193;-87
2021/03/23 13:16:04;;;;;;;25.80;15.87;;;21.70;53.00;;;;;;4979890;28;20178;-86
2021/03/23 13:18:31;;;;;;;26.60;16.13;;;22.10;52.20;;;;;;4984353;28;20627;-86
2021/03/23 13:21:03;;;;;;;24.73;15.27;;;22.90;51.80;;;;;;4982976;28;20182;-87
2021/03/23 13:23:43;;;;;;;25.67;16.77;;;23.50;50.20;;;;;;4976936;28;20179;-87
2021/03/23 13:26:09;;;;;;;24.97;16.50;;;23.40;49.80;;;;;;4975027;28;20193;-87
2021/03/23 13:28:49;;;;;;;24.53;15.30;;;23.10;49.70;;;;;;4961670;28;20536;-86
2021/03/23 13:31:21;;;;;;;27.00;16.00;;;23.50;50.00;;;;;;4976520;28;20208;-86
2021/03/23 13:33:47;;;;;;;22.70;15.30;;;23.30;49.70;;;;;;4972233;28;20367;-87
2021/03/23 13:36:30;;;;;;;24.87;15.30;;;23.10;49.80;;;;;;4977412;28;20170;-88
2021/03/23 13:38:58;;;;;;;21.70;15.23;;;23.30;49.70;;;;;;4974433;28;20196;-91
2021/03/23 13:41:24;;;;;;;24.17;16.67;;;23.90;49.10;;;;;;4970474;28;20636;-90
2021/03/23 13:43:56;;;;;;;21.07;14.97;;;24.30;48.20;;;;;;4971241;28;20221;-85
2021/03/23 13:46:37;;;;;;;24.73;15.97;;;24.40;48.10;;;;;;4959793;28;20650;-86
2021/03/23 13:49:03;;;;;;;20.20;16.60;;;24.60;47.70;;;;;;4975480;28;20580;-87
2021/03/23 13:51:30;;;;;;;21.30;15.30;;;24.80;47.20;;;;;;4967022;28;20641;-87
2021/03/23 13:53:55;;;;;;;20.40;15.37;;;25.40;46.80;;;;;;4967518;28;20258;-86
2021/03/23 13:56:21;;;;;;;20.33;14.70;;;25.20;46.30;;;;;;4975200;28;20272;-87
2021/03/23 13:58:46;;;;;;;20.50;15.57;;;25.60;46.10;;;;;;4938996;28;21347;-87
2021/03/23 14:01:15;;;;;;;24.73;17.77;;;26.30;45.40;;;;;;4962777;28;20196;-86
2021/03/23 14:03:45;;;;;;;24.07;16.90;;;25.80;45.50;;;;;;4958954;28;20654;-85
2021/03/23 14:06:20;;;;;;;22.17;16.70;;;25.80;45.50;;;;;;4965999;28;20543;-86
2021/03/23 14:08:45;;;;;;;20.57;15.50;;;25.20;45.60;;;;;;4976800;28;20216;-86
2021/03/23 14:11:14;;;;;;;24.03;16.63;;;24.90;46.30;;;;;;4970376;28;20634;-82
2021/03/23 14:13:40;;;;;;;22.43;16.67;;;25.10;45.90;;;;;;4964746;28;20564;-87